Terminal Aerodrome Forecast
Issued by NWS

Home | Current Version | Previous Version | Text Only | Print | Product List | Glossary On
Versions: 1 2 3 4 5 6 7 8 9 10 11 12 13
000
FTUS41 KPHI 312335
TAFPNE
TAF
KPNE 312335Z 0100/0124 25006KT P6SM SCT050
     FM011200 34005KT P6SM SKC
     FM011800 03005KT P6SM FEW050=

USA.gov is the U.S. government's official web portal to all federal, state and local government web resources and services.